Upstream stations:
Downstream station:
SHEF ID: TALO2 Illinois River near Tahlequah, O
STATION TYPE:
Regulating: Stage = 11.00, Flow = 9049
PRECIP STAGE STAGE(2) RIV-FLOW BAT-LOAD
in ft ft cfs volt
Ccp-Rev Ccp-Rev Ccp-Rev Ccp-Rev Ccp-Rev
(US/Central)
04/13 00:00 0.00 5.75 7.16 834 12.25
04/13 01:00 0.00 5.76 7.18 841 12.17
04/13 02:00 0.00 5.74 7.18 827 12.17
04/13 03:00 0.00 5.76 7.11 841 12.17
04/13 04:00 0.00 5.75 7.11 834 12.17
04/13 05:00 0.00 5.74 7.11 827 12.09
04/13 06:00 0.00 5.74 7.09 827 12.09
04/13 07:00 0.00 5.75 7.11 834 12.09
04/13 08:00 0.00 5.74 7.15 827 12.09
04/13 09:00 0.00 5.75 7.18 834 12.17
04/13 10:00 0.00 5.73 7.26 821 12.41
04/13 11:00 0.00 5.73 7.46 821 12.81
04/13 12:00 0.00 5.73 7.61 821 12.97
04/13 13:00 0.00 5.71 7.60 807 12.89
04/13 14:00 0.16 5.71 7.61 807 12.57
04/13 15:00 0.00 5.71 7.72 807 13.05
04/13 16:00 0.00 5.70 7.66 801 13.21
04/13 17:00 0.00 5.70 7.74 801 13.21
04/13 18:00 0.00 5.70 7.40 801 12.41
04/13 19:00 ---- ---- ---- ---- 12.41
04/13 20:00 ---- ---- ---- ---- 12.33
04/13 21:00 ---- ---- ---- ---- 12.33
04/13 22:00 ---- ---- ---- ---- 12.25
04/13 23:00 ---- ---- ---- ---- ----